createdAt,value
2023-09-19T00:00:09.458Z,85.62
2023-09-19T00:00:22.736Z,85.75
2023-09-19T00:00:34.963Z,85.71
2023-09-19T00:00:50.819Z,85.66
2023-09-19T00:01:08.595Z,85.75
2023-09-19T00:01:21.746Z,85.71
2023-09-19T00:01:34.022Z,86.16
2023-09-19T00:01:46.929Z,86.17
2023-09-19T00:01:59.275Z,86.25
2023-09-19T00:02:12.424Z,86.17
2023-09-19T00:02:24.595Z,86.23
2023-09-19T00:02:37.891Z,85.96
2023-09-19T00:03:02.388Z,85.84
2023-09-19T00:03:14.579Z,85.64
2023-09-19T00:03:26.982Z,85.62
2023-09-19T00:03:40.021Z,86.01
2023-09-19T00:03:52.597Z,86.11
2023-09-19T00:04:10.791Z,86.21
2023-09-19T00:04:30.081Z,86.00
2023-09-19T00:04:44.132Z,85.92
2023-09-19T00:04:56.173Z,85.98
2023-09-19T00:05:09.902Z,85.63
2023-09-19T00:05:26.229Z,85.24
2023-09-19T00:05:46.196Z,85.18
2023-09-19T00:05:59.606Z,85.26
2023-09-19T00:06:11.623Z,85.32
2023-09-19T00:06:26.937Z,85.51
2023-09-19T00:06:38.920Z,85.54
2023-09-19T00:06:51.252Z,85.56
2023-09-19T00:07:03.897Z,85.72
2023-09-19T00:07:17.269Z,85.64
2023-09-19T00:07:29.325Z,85.28
2023-09-19T00:07:41.604Z,85.23
2023-09-19T00:07:55.709Z,85.36
2023-09-19T00:08:08.232Z,85.65
2023-09-19T00:08:25.177Z,85.51
2023-09-19T00:08:37.178Z,85.58
2023-09-19T00:08:49.155Z,85.67
2023-09-19T00:09:01.210Z,85.87
2023-09-19T00:09:13.288Z,85.80
2023-09-19T00:09:28.493Z,85.45
2023-09-19T00:09:40.460Z,85.30
2023-09-19T00:09:52.490Z,85.37
2023-09-19T00:10:05.745Z,85.47
2023-09-19T00:10:18.153Z,85.41
2023-09-19T00:10:32.193Z,85.35
2023-09-19T00:10:44.838Z,85.57
2023-09-19T00:10:57.614Z,85.65
2023-09-19T00:11:12.110Z,85.79
2023-09-19T00:11:27.113Z,85.84
2023-09-19T00:11:39.588Z,85.71
2023-09-19T00:11:52.561Z,85.62
2023-09-19T00:12:07.956Z,85.56
2023-09-19T00:12:19.961Z,85.92
2023-09-19T00:12:32.704Z,85.89
2023-09-19T00:12:44.863Z,85.94
2023-09-19T00:12:57.462Z,86.06
2023-09-19T00:13:13.943Z,86.08
2023-09-19T00:13:26.033Z,86.25
2023-09-19T00:13:38.252Z,86.20
2023-09-19T00:13:51.273Z,86.11
2023-09-19T00:14:03.662Z,86.20
2023-09-19T00:14:15.675Z,86.52
2023-09-19T00:14:27.687Z,86.44
2023-09-19T00:14:39.715Z,86.29
2023-09-19T00:14:52.714Z,86.13
2023-09-19T00:15:05.309Z,86.22
2023-09-19T00:15:18.743Z,86.19
2023-09-19T00:15:31.217Z,86.18
2023-09-19T00:15:51.860Z,86.32
2023-09-19T00:16:12.006Z,86.59
2023-09-19T00:16:24.155Z,86.66
2023-09-19T00:16:37.338Z,86.59
2023-09-19T00:16:50.781Z,86.43
2023-09-19T00:17:09.296Z,86.26
2023-09-19T00:17:21.865Z,86.25
2023-09-19T00:17:33.913Z,86.13
2023-09-19T00:17:46.017Z,86.30
2023-09-19T00:17:58.190Z,86.53
2023-09-19T00:18:10.324Z,86.37
2023-09-19T00:18:23.658Z,86.53
2023-09-19T00:18:36.958Z,86.34
2023-09-19T00:18:50.100Z,86.24
2023-09-19T00:19:02.181Z,86.18
2023-09-19T00:19:15.190Z,86.19
2023-09-19T00:19:27.780Z,86.23
2023-09-19T00:19:39.806Z,86.21
2023-09-19T00:19:54.146Z,86.38
2023-09-19T00:20:12.683Z,86.54
2023-09-19T00:20:25.323Z,86.86
2023-09-19T00:20:38.681Z,86.42
2023-09-19T00:20:52.506Z,86.78
2023-09-19T00:21:08.875Z,86.75
2023-09-19T00:21:21.441Z,86.53
2023-09-19T00:21:33.565Z,86.35
2023-09-19T00:21:46.942Z,86.53
2023-09-19T00:21:59.079Z,86.57
2023-09-19T00:22:11.923Z,86.52
2023-09-19T00:22:27.528Z,86.59
2023-09-19T00:22:45.828Z,86.45
2023-09-19T00:23:00.193Z,86.37
2023-09-19T00:23:12.337Z,86.25
2023-09-19T00:23:25.600Z,86.11
2023-09-19T00:23:38.374Z,86.15
2023-09-19T00:23:52.632Z,86.21
2023-09-19T00:24:06.964Z,86.39
2023-09-19T00:24:19.537Z,86.47
2023-09-19T00:24:32.272Z,86.22
2023-09-19T00:24:44.245Z,86.10
2023-09-19T00:24:56.457Z,85.98
2023-09-19T00:25:08.716Z,85.74
2023-09-19T00:25:21.454Z,85.66
2023-09-19T00:25:33.569Z,85.64
2023-09-19T00:25:46.403Z,85.60
2023-09-19T00:26:02.049Z,85.97
2023-09-19T00:26:14.016Z,86.12
2023-09-19T00:26:25.993Z,86.16
2023-09-19T00:26:39.259Z,86.27
2023-09-19T00:26:51.312Z,86.86
2023-09-19T00:27:03.504Z,86.35
2023-09-19T00:27:15.589Z,86.07
2023-09-19T00:27:27.513Z,86.04
2023-09-19T00:27:43.281Z,86.25
2023-09-19T00:27:55.787Z,86.36
2023-09-19T00:28:08.686Z,86.21
2023-09-19T00:28:20.974Z,85.95
2023-09-19T00:28:33.412Z,86.12
2023-09-19T00:28:45.672Z,86.18
2023-09-19T00:28:58.376Z,85.90
2023-09-19T00:29:10.334Z,85.78
2023-09-19T00:29:24.402Z,85.59
2023-09-19T00:29:36.358Z,85.67
2023-09-19T00:29:48.948Z,85.43
2023-09-19T00:30:01.468Z,85.59
2023-09-19T00:30:22.726Z,85.86
2023-09-19T00:30:36.240Z,86.11
2023-09-19T00:30:51.368Z,85.83
2023-09-19T00:31:03.771Z,85.89
2023-09-19T00:31:15.902Z,85.73
2023-09-19T00:31:28.247Z,85.26
2023-09-19T00:31:40.680Z,85.00
2023-09-19T00:31:52.733Z,85.15
2023-09-19T00:32:06.473Z,85.32
2023-09-19T00:32:18.541Z,85.05
2023-09-19T00:32:33.152Z,85.08
2023-09-19T00:32:45.579Z,85.44
2023-09-19T00:32:58.047Z,84.84
2023-09-19T00:33:12.489Z,85.04
2023-09-19T00:33:25.403Z,85.16
2023-09-19T00:33:37.739Z,85.25
2023-09-19T00:33:49.913Z,85.34
2023-09-19T00:34:07.658Z,85.19
2023-09-19T00:34:19.842Z,85.40
2023-09-19T00:34:32.185Z,85.76
2023-09-19T00:34:44.158Z,85.35
2023-09-19T00:34:57.398Z,85.36
2023-09-19T00:35:12.477Z,85.66
2023-09-19T00:35:27.149Z,85.42
2023-09-19T00:35:39.079Z,85.52
2023-09-19T00:35:52.785Z,85.44
2023-09-19T00:36:06.636Z,85.43
2023-09-19T00:36:19.528Z,85.71
2023-09-19T00:36:31.456Z,85.73
2023-09-19T00:36:44.373Z,85.90
2023-09-19T00:36:56.870Z,86.05
2023-09-19T00:37:08.856Z,85.92
2023-09-19T00:37:20.878Z,85.77
2023-09-19T00:37:32.902Z,85.68
2023-09-19T00:37:44.948Z,85.55
2023-09-19T00:37:57.024Z,85.04
2023-09-19T00:38:08.958Z,85.02
2023-09-19T00:38:22.467Z,85.01
2023-09-19T00:38:34.498Z,84.81
2023-09-19T00:38:47.542Z,84.95
2023-09-19T00:38:59.512Z,84.91
2023-09-19T00:39:11.775Z,84.78
2023-09-19T00:39:27.871Z,85.07
2023-09-19T00:39:39.868Z,85.23
2023-09-19T00:39:51.942Z,85.38
2023-09-19T00:40:06.731Z,85.20
2023-09-19T00:40:19.361Z,85.32
2023-09-19T00:40:31.668Z,85.32
2023-09-19T00:40:47.322Z,85.45
2023-09-19T00:41:01.877Z,85.30
2023-09-19T00:41:13.950Z,85.41
2023-09-19T00:41:26.092Z,85.39
2023-09-19T00:41:38.102Z,85.53
2023-09-19T00:41:50.159Z,85.63
2023-09-19T00:42:06.138Z,85.58
2023-09-19T00:42:22.588Z,85.59
2023-09-19T00:42:34.785Z,85.69
2023-09-19T00:42:48.001Z,85.84
2023-09-19T00:43:02.605Z,85.63
2023-09-19T00:43:14.734Z,85.48
2023-09-19T00:43:28.735Z,85.74
2023-09-19T00:43:41.534Z,85.64
2023-09-19T00:43:53.739Z,85.71
2023-09-19T00:44:06.170Z,85.53
2023-09-19T00:44:19.401Z,85.65
2023-09-19T00:44:31.413Z,85.61
2023-09-19T00:44:44.434Z,85.61
2023-09-19T00:44:56.397Z,85.57
2023-09-19T00:45:13.082Z,85.47
2023-09-19T00:45:25.225Z,85.61
2023-09-19T00:45:43.498Z,85.82
2023-09-19T00:45:57.495Z,85.46
2023-09-19T00:46:09.818Z,85.60
2023-09-19T00:46:22.419Z,85.91
2023-09-19T00:46:34.718Z,86.16
2023-09-19T00:46:50.431Z,85.75
2023-09-19T00:47:03.531Z,85.63
2023-09-19T00:47:18.782Z,85.68
2023-09-19T00:47:31.278Z,85.90
2023-09-19T00:47:46.940Z,86.15
2023-09-19T00:48:04.968Z,86.35
2023-09-19T00:48:18.367Z,86.27
2023-09-19T00:48:31.492Z,86.35
2023-09-19T00:48:47.161Z,86.33
2023-09-19T00:49:00.149Z,86.64
2023-09-19T00:49:13.086Z,86.65
2023-09-19T00:49:26.695Z,86.38
2023-09-19T00:49:39.346Z,86.50
2023-09-19T00:49:51.457Z,86.42
2023-09-19T00:50:05.598Z,86.73
2023-09-19T00:50:19.694Z,86.56
2023-09-19T00:50:33.340Z,86.59
2023-09-19T00:50:48.834Z,86.87
2023-09-19T00:51:05.797Z,87.11
2023-09-19T00:51:21.367Z,86.85
2023-09-19T00:51:33.395Z,86.90
2023-09-19T00:51:48.223Z,86.84
2023-09-19T00:52:00.910Z,86.60
2023-09-19T00:52:13.403Z,86.53
2023-09-19T00:52:26.430Z,86.39
2023-09-19T00:52:39.694Z,86.32
2023-09-19T00:52:57.003Z,86.35
2023-09-19T00:53:10.846Z,86.38
2023-09-19T00:53:24.945Z,86.43
2023-09-19T00:53:37.020Z,86.51
2023-09-19T00:53:49.058Z,86.69
2023-09-19T00:54:01.140Z,86.57
2023-09-19T00:54:19.091Z,86.30
2023-09-19T00:54:31.155Z,86.25
2023-09-19T00:54:43.093Z,86.15
2023-09-19T00:54:55.796Z,86.21
2023-09-19T00:55:09.549Z,86.34
2023-09-19T00:55:21.747Z,86.40
2023-09-19T00:55:34.016Z,86.26
2023-09-19T00:55:47.789Z,86.23
2023-09-19T00:55:59.845Z,86.00
2023-09-19T00:56:12.244Z,86.13
2023-09-19T00:56:24.369Z,86.17
2023-09-19T00:56:39.006Z,86.11
2023-09-19T00:56:52.055Z,86.33
2023-09-19T00:57:04.569Z,86.51
2023-09-19T00:57:18.476Z,86.56
2023-09-19T00:57:33.997Z,86.77
2023-09-19T00:57:46.389Z,86.73
2023-09-19T00:57:58.557Z,86.69
2023-09-19T00:58:11.538Z,86.75
2023-09-19T00:58:23.843Z,86.85
2023-09-19T00:58:38.275Z,86.90
2023-09-19T00:58:50.513Z,86.97
2023-09-19T00:59:02.508Z,86.97
2023-09-19T00:59:14.513Z,86.86
2023-09-19T00:59:26.461Z,86.93
2023-09-19T00:59:38.497Z,86.92
2023-09-19T00:59:52.889Z,87.18
2023-09-19T01:00:08.169Z,87.14
2023-09-19T01:00:21.902Z,86.99
2023-09-19T01:00:35.237Z,86.78
2023-09-19T01:00:49.591Z,86.49
2023-09-19T01:01:02.427Z,86.74
2023-09-19T01:01:15.781Z,86.61
2023-09-19T01:01:28.838Z,86.86
2023-09-19T01:01:41.099Z,86.81
2023-09-19T01:01:55.264Z,86.61
2023-09-19T01:02:07.591Z,86.80
2023-09-19T01:02:19.887Z,86.87
2023-09-19T01:02:32.986Z,86.82
2023-09-19T01:02:45.949Z,86.79
2023-09-19T01:02:58.189Z,86.87
2023-09-19T01:03:10.938Z,86.92
2023-09-19T01:03:23.780Z,86.81
2023-09-19T01:03:36.263Z,86.88
2023-09-19T01:03:48.391Z,87.04
2023-09-19T01:04:00.764Z,87.09
2023-09-19T01:04:14.044Z,87.09
2023-09-19T01:04:26.415Z,86.99
2023-09-19T01:04:38.625Z,86.96
2023-09-19T01:04:50.931Z,86.87
2023-09-19T01:05:05.332Z,87.12
2023-09-19T01:05:18.115Z,87.26
2023-09-19T01:05:33.292Z,87.14
2023-09-19T01:05:45.425Z,87.23
2023-09-19T01:05:57.431Z,87.33
2023-09-19T01:06:09.732Z,87.40
2023-09-19T01:06:22.042Z,87.36
2023-09-19T01:06:34.076Z,87.54
2023-09-19T01:06:47.043Z,87.41
2023-09-19T01:06:59.165Z,87.44
2023-09-19T01:07:11.802Z,87.51
2023-09-19T01:07:24.169Z,87.53
2023-09-19T01:07:37.132Z,87.63
2023-09-19T01:07:50.046Z,87.41
2023-09-19T01:08:02.405Z,87.38
2023-09-19T01:08:14.432Z,87.32
2023-09-19T01:08:30.676Z,87.36
2023-09-19T01:08:42.602Z,87.26
2023-09-19T01:08:56.834Z,87.22
2023-09-19T01:09:09.415Z,87.20
2023-09-19T01:09:22.062Z,87.01
2023-09-19T01:09:35.737Z,87.15
2023-09-19T01:09:47.831Z,87.17
2023-09-19T01:10:00.461Z,87.15
2023-09-19T01:10:15.425Z,87.14
2023-09-19T01:10:27.613Z,87.38
2023-09-19T01:10:52.774Z,86.91
2023-09-19T01:11:33.787Z,87.13
2023-09-19T01:11:49.201Z,86.75
2023-09-19T01:12:05.785Z,86.61
2023-09-19T01:12:26.480Z,86.71
2023-09-19T01:13:06.168Z,86.35
2023-09-19T01:13:32.782Z,86.17
2023-09-19T01:14:36.582Z,86.51
2023-09-19T01:15:07.881Z,86.55
2023-09-19T01:15:44.046Z,86.73
2023-09-19T01:16:07.190Z,86.95
2023-09-19T01:16:40.603Z,87.04
2023-09-19T01:17:02.858Z,87.06
2023-09-19T01:17:49.962Z,87.05
2023-09-19T01:18:12.374Z,87.37
2023-09-19T01:18:24.335Z,87.50
2023-09-19T01:18:47.937Z,87.40
2023-09-19T01:19:21.235Z,87.03
2023-09-19T01:19:54.857Z,87.16
2023-09-19T01:20:08.998Z,87.16
2023-09-19T01:20:35.118Z,87.10
2023-09-19T01:21:07.486Z,86.92
2023-09-19T01:21:51.667Z,86.73
2023-09-19T01:22:43.185Z,86.83
2023-09-19T01:23:03.274Z,86.97
2023-09-19T01:23:22.765Z,86.75
2023-09-19T01:23:40.568Z,86.78
2023-09-19T01:24:11.413Z,86.40
2023-09-19T01:24:51.400Z,86.42
2023-09-19T01:25:41.099Z,86.15
2023-09-19T01:26:11.919Z,86.42
2023-09-19T01:27:15.412Z,86.64
2023-09-19T01:27:52.319Z,86.56
2023-09-19T01:28:30.887Z,86.33
2023-09-19T01:28:42.803Z,86.49
2023-09-19T01:29:14.311Z,86.69
2023-09-19T01:29:40.694Z,86.38
2023-09-19T01:29:53.067Z,86.14
2023-09-19T01:30:11.216Z,86.17
2023-09-19T01:30:28.679Z,85.95
2023-09-19T01:30:45.168Z,86.04
2023-09-19T01:31:01.698Z,86.06
2023-09-19T01:31:15.553Z,85.99
2023-09-19T01:31:31.315Z,85.75
2023-09-19T01:31:44.088Z,85.90
2023-09-19T01:32:02.605Z,85.99
2023-09-19T01:32:20.795Z,85.82
2023-09-19T01:32:33.894Z,85.81
2023-09-19T01:32:47.435Z,85.71
2023-09-19T01:33:00.828Z,85.86
2023-09-19T01:33:12.964Z,85.86
2023-09-19T01:33:25.064Z,85.68
2023-09-19T01:34:05.179Z,85.32
2023-09-19T01:34:17.261Z,85.69
2023-09-19T01:34:46.690Z,85.96
2023-09-19T01:35:05.065Z,86.25
2023-09-19T01:35:17.115Z,86.49
2023-09-19T01:35:29.077Z,86.34
2023-09-19T01:35:41.172Z,85.97
2023-09-19T01:35:59.529Z,86.42
2023-09-19T01:36:11.522Z,85.91
2023-09-19T01:36:24.358Z,85.92
2023-09-19T01:36:37.740Z,86.15
2023-09-19T01:36:49.876Z,85.98
2023-09-19T01:37:03.301Z,86.12
2023-09-19T01:37:20.849Z,85.96
2023-09-19T01:37:33.052Z,85.70
2023-09-19T01:37:45.670Z,85.88
2023-09-19T01:37:57.660Z,85.65
2023-09-19T01:38:12.688Z,85.58
2023-09-19T01:38:24.664Z,85.62
2023-09-19T01:38:36.767Z,85.56
2023-09-19T01:38:49.551Z,85.52
2023-09-19T01:39:06.929Z,85.37
2023-09-19T01:39:20.759Z,85.59
2023-09-19T01:39:32.896Z,86.04
2023-09-19T01:39:44.867Z,85.97
2023-09-19T01:40:21.169Z,85.97
2023-09-19T01:40:40.672Z,86.07
2023-09-19T01:41:05.854Z,85.92
2023-09-19T01:41:26.841Z,85.97
2023-09-19T01:42:06.556Z,85.78
2023-09-19T01:42:32.620Z,85.86
2023-09-19T01:43:09.847Z,85.75
2023-09-19T01:43:36.681Z,85.63
2023-09-19T01:43:51.462Z,85.28
2023-09-19T01:44:07.397Z,85.42
2023-09-19T01:44:30.155Z,84.97
2023-09-19T01:45:03.203Z,85.29
2023-09-19T01:45:26.421Z,85.63
2023-09-19T01:46:09.486Z,85.51
2023-09-19T01:46:36.375Z,85.27
2023-09-19T01:46:48.578Z,85.27
2023-09-19T01:47:06.645Z,85.43
2023-09-19T01:47:32.813Z,85.75
2023-09-19T01:47:52.508Z,86.10
2023-09-19T01:48:16.726Z,85.85
2023-09-19T01:48:56.770Z,85.62
2023-09-19T01:49:11.392Z,85.74
2023-09-19T01:49:34.468Z,86.00
2023-09-19T01:49:59.303Z,85.52
2023-09-19T01:50:33.370Z,85.76
2023-09-19T01:51:01.990Z,86.02
2023-09-19T01:51:23.354Z,86.69
2023-09-19T01:51:47.405Z,86.58
2023-09-19T01:52:10.634Z,85.92
2023-09-19T01:52:23.080Z,86.00
2023-09-19T01:52:43.942Z,85.80
2023-09-19T01:53:03.843Z,85.06
2023-09-19T01:53:24.718Z,85.49
2023-09-19T01:53:45.800Z,85.81
2023-09-19T01:54:04.884Z,85.74
2023-09-19T01:54:25.892Z,86.06
2023-09-19T01:54:48.234Z,86.04
2023-09-19T01:55:08.401Z,85.48
2023-09-19T01:55:21.847Z,85.66
2023-09-19T01:55:44.074Z,85.78
2023-09-19T01:55:56.711Z,86.02
2023-09-19T01:56:13.701Z,86.27
2023-09-19T01:56:41.320Z,86.38
2023-09-19T01:57:29.678Z,86.59
2023-09-19T01:58:09.837Z,86.57
2023-09-19T01:58:40.863Z,86.22
2023-09-19T01:59:00.396Z,86.12
2023-09-19T01:59:17.193Z,86.14
2023-09-19T01:59:36.682Z,86.16
2023-09-19T02:00:01.766Z,85.84
2023-09-19T02:00:15.721Z,85.56
2023-09-19T02:00:30.670Z,85.75
2023-09-19T02:00:45.344Z,86.35
2023-09-19T02:00:59.441Z,86.38
2023-09-19T02:01:16.503Z,86.48
2023-09-19T02:01:29.441Z,86.63
2023-09-19T02:01:45.838Z,86.66
2023-09-19T02:01:59.296Z,86.55
2023-09-19T02:02:13.260Z,86.49
2023-09-19T02:02:26.917Z,86.72
2023-09-19T02:02:41.709Z,86.94
2023-09-19T02:02:56.804Z,86.99
2023-09-19T02:03:10.541Z,87.41
2023-09-19T02:03:26.384Z,86.97
2023-09-19T02:03:40.999Z,86.70
2023-09-19T02:03:54.428Z,86.80
2023-09-19T02:04:06.696Z,87.00
2023-09-19T02:04:18.776Z,86.98
2023-09-19T02:04:31.495Z,86.87
2023-09-19T02:04:43.599Z,86.78
2023-09-19T02:04:56.235Z,86.95
2023-09-19T02:05:08.775Z,86.95
2023-09-19T02:05:34.225Z,86.64
2023-09-19T02:05:51.414Z,86.56
2023-09-19T02:06:04.806Z,86.64
2023-09-19T02:06:18.773Z,87.10
2023-09-19T02:06:30.796Z,86.62
2023-09-19T02:06:43.265Z,86.82
2023-09-19T02:06:56.656Z,86.87
2023-09-19T02:07:09.508Z,86.45
2023-09-19T02:07:21.536Z,86.54
2023-09-19T02:07:34.258Z,86.42
2023-09-19T02:07:46.278Z,86.30
2023-09-19T02:07:59.760Z,86.25
2023-09-19T02:08:11.779Z,86.14
2023-09-19T02:08:27.026Z,85.98
2023-09-19T02:08:39.211Z,85.97
2023-09-19T02:08:51.322Z,85.90
2023-09-19T02:09:04.896Z,85.90
2023-09-19T02:09:17.141Z,85.99
2023-09-19T02:09:29.181Z,85.88
2023-09-19T02:09:41.189Z,85.97
2023-09-19T02:09:53.138Z,85.86
2023-09-19T02:10:11.210Z,86.18
2023-09-19T02:10:24.422Z,86.33
2023-09-19T02:10:36.473Z,86.66
2023-09-19T02:10:49.921Z,86.82
2023-09-19T02:11:01.979Z,87.06
2023-09-19T02:11:14.278Z,86.98
2023-09-19T02:11:26.368Z,86.84
2023-09-19T02:11:38.351Z,86.92
2023-09-19T02:11:50.643Z,86.75
2023-09-19T02:12:04.745Z,86.86
2023-09-19T02:12:17.099Z,87.03
2023-09-19T02:12:29.552Z,87.12
2023-09-19T02:12:41.517Z,87.29
2023-09-19T02:12:53.571Z,87.38
2023-09-19T02:13:05.578Z,87.39
2023-09-19T02:13:22.808Z,87.52
2023-09-19T02:13:35.199Z,87.39
2023-09-19T02:13:47.193Z,87.43
2023-09-19T02:14:00.482Z,87.35
2023-09-19T02:14:12.437Z,87.34
2023-09-19T02:14:24.374Z,87.64
2023-09-19T02:14:37.139Z,87.76
2023-09-19T02:14:49.133Z,87.86
2023-09-19T02:15:01.426Z,87.86
2023-09-19T02:15:13.580Z,88.02
2023-09-19T02:15:25.587Z,87.86
2023-09-19T02:15:38.745Z,87.90
2023-09-19T02:15:50.912Z,87.94
2023-09-19T02:16:05.389Z,87.85
2023-09-19T02:16:18.225Z,87.58
2023-09-19T02:16:30.403Z,87.57
2023-09-19T02:16:43.185Z,87.49
2023-09-19T02:16:55.660Z,87.34
2023-09-19T02:17:08.142Z,87.11
2023-09-19T02:17:20.454Z,87.03
2023-09-19T02:17:32.461Z,86.91
2023-09-19T02:17:45.175Z,86.79
2023-09-19T02:17:57.838Z,86.83
2023-09-19T02:18:09.924Z,87.06
2023-09-19T02:18:22.899Z,87.08
2023-09-19T02:18:36.079Z,86.99
2023-09-19T02:18:52.141Z,86.89
2023-09-19T02:19:06.986Z,86.85
2023-09-19T02:19:19.056Z,86.80
2023-09-19T02:19:31.950Z,86.76
2023-09-19T02:19:43.940Z,86.60
2023-09-19T02:19:56.237Z,86.83
2023-09-19T02:20:11.162Z,86.96
2023-09-19T02:20:23.422Z,87.06
2023-09-19T02:20:35.392Z,86.88
2023-09-19T02:20:47.377Z,86.62
2023-09-19T02:20:59.757Z,86.76
2023-09-19T02:21:13.382Z,86.77
2023-09-19T02:21:25.978Z,86.97
2023-09-19T02:21:37.975Z,86.88
2023-09-19T02:21:49.982Z,86.98
2023-09-19T02:22:07.007Z,87.07
2023-09-19T02:22:18.983Z,86.90
2023-09-19T02:22:30.986Z,87.05
2023-09-19T02:22:43.664Z,87.15
2023-09-19T02:22:55.802Z,87.32
2023-09-19T02:23:09.150Z,87.21
2023-09-19T02:23:21.333Z,87.18
2023-09-19T02:23:34.554Z,87.26
2023-09-19T02:23:48.531Z,86.94
2023-09-19T02:24:00.602Z,87.17
2023-09-19T02:24:13.631Z,87.04
2023-09-19T02:24:27.847Z,87.32
2023-09-19T02:24:39.892Z,87.29
2023-09-19T02:24:52.115Z,87.39
2023-09-19T02:25:08.452Z,87.47
2023-09-19T02:25:20.938Z,87.51
2023-09-19T02:25:33.276Z,87.53
2023-09-19T02:25:55.610Z,87.68
2023-09-19T02:26:07.652Z,87.21
2023-09-19T02:26:19.870Z,87.05
2023-09-19T02:26:32.058Z,87.17
2023-09-19T02:26:44.917Z,87.11
2023-09-19T02:26:57.941Z,86.96
2023-09-19T02:27:09.924Z,87.01
2023-09-19T02:27:21.920Z,87.04
2023-09-19T02:27:33.901Z,87.08
2023-09-19T02:27:45.869Z,86.95
2023-09-19T02:27:59.746Z,87.01
2023-09-19T02:28:12.794Z,86.80
2023-09-19T02:28:25.198Z,86.57
2023-09-19T02:28:37.246Z,86.57
2023-09-19T02:28:49.348Z,86.94
2023-09-19T02:29:02.289Z,86.90
2023-09-19T02:29:15.190Z,86.75
2023-09-19T02:29:27.811Z,86.31
2023-09-19T02:29:39.748Z,85.80
2023-09-19T02:29:52.421Z,85.70
2023-09-19T02:30:07.243Z,85.64
2023-09-19T02:30:21.448Z,85.83
2023-09-19T02:30:34.272Z,85.97
2023-09-19T02:30:50.000Z,85.75
2023-09-19T02:31:02.624Z,85.92
2023-09-19T02:31:15.042Z,86.01
2023-09-19T02:31:30.147Z,86.01
2023-09-19T02:31:42.351Z,86.06
2023-09-19T02:31:57.192Z,86.10
2023-09-19T02:32:10.686Z,85.93
2023-09-19T02:32:24.139Z,86.02
2023-09-19T02:32:39.781Z,85.51
2023-09-19T02:32:52.079Z,85.61
2023-09-19T02:33:04.850Z,85.75
2023-09-19T02:33:18.710Z,85.41
2023-09-19T02:33:33.646Z,85.46
2023-09-19T02:33:47.275Z,85.56
2023-09-19T02:34:01.007Z,85.54
2023-09-19T02:34:13.176Z,85.50
2023-09-19T02:34:26.630Z,85.55
2023-09-19T02:34:40.322Z,85.35
2023-09-19T02:34:52.933Z,85.56
2023-09-19T02:35:05.903Z,85.87
2023-09-19T02:35:20.757Z,85.72
2023-09-19T02:35:37.352Z,85.53
2023-09-19T02:35:49.561Z,85.53
2023-09-19T02:36:02.090Z,85.55
2023-09-19T02:36:14.475Z,85.48
2023-09-19T02:36:27.170Z,85.46
2023-09-19T02:36:39.806Z,85.80
2023-09-19T02:36:53.532Z,85.89
2023-09-19T02:37:06.293Z,86.09
2023-09-19T02:37:20.020Z,86.06
2023-09-19T02:37:33.693Z,85.72
2023-09-19T02:37:45.844Z,85.56
2023-09-19T02:37:57.902Z,85.35
2023-09-19T02:38:12.456Z,85.51
2023-09-19T02:38:26.835Z,85.30
2023-09-19T02:38:38.849Z,85.12
2023-09-19T02:38:50.951Z,85.14
2023-09-19T02:39:03.010Z,84.89
2023-09-19T02:39:15.038Z,84.99
2023-09-19T02:39:27.133Z,84.79
2023-09-19T02:39:39.385Z,84.78
2023-09-19T02:39:51.445Z,84.72
2023-09-19T02:40:03.762Z,84.93
2023-09-19T02:40:27.003Z,85.06
2023-09-19T02:40:39.293Z,85.26
2023-09-19T02:40:52.157Z,85.42
2023-09-19T02:41:04.491Z,85.29
2023-09-19T02:41:16.590Z,85.19
2023-09-19T02:41:30.480Z,85.39
2023-09-19T02:41:42.745Z,85.51
2023-09-19T02:41:54.810Z,85.86
2023-09-19T02:42:06.956Z,85.57
2023-09-19T02:42:19.014Z,85.36
2023-09-19T02:42:31.382Z,85.30
2023-09-19T02:42:43.865Z,85.04
2023-09-19T02:42:57.047Z,84.73
2023-09-19T02:43:10.139Z,84.71
2023-09-19T02:43:23.000Z,85.00
2023-09-19T02:43:35.482Z,85.03
2023-09-19T02:43:48.457Z,85.07
2023-09-19T02:44:00.523Z,84.93
2023-09-19T02:44:12.762Z,84.53
2023-09-19T02:44:24.900Z,84.09
2023-09-19T02:44:37.082Z,84.21
2023-09-19T02:44:49.230Z,84.12
2023-09-19T02:45:01.316Z,84.34
2023-09-19T02:45:13.733Z,84.56
2023-09-19T02:45:26.324Z,84.22
2023-09-19T02:45:38.584Z,84.11
2023-09-19T02:45:51.212Z,84.20
2023-09-19T02:46:04.194Z,84.58
2023-09-19T02:46:17.924Z,84.58
2023-09-19T02:46:30.133Z,84.59
2023-09-19T02:46:43.254Z,84.35
2023-09-19T02:46:55.570Z,84.12
2023-09-19T02:47:07.866Z,83.83
2023-09-19T02:47:20.523Z,83.59
2023-09-19T02:47:32.872Z,83.95
2023-09-19T02:47:49.060Z,84.04
2023-09-19T02:48:01.504Z,84.05
2023-09-19T02:48:13.754Z,84.26
2023-09-19T02:48:26.576Z,84.35
2023-09-19T02:48:39.611Z,84.64
2023-09-19T02:48:51.654Z,84.60
2023-09-19T02:49:07.692Z,84.88
2023-09-19T02:49:19.953Z,84.84
2023-09-19T02:49:32.098Z,84.77
2023-09-19T02:49:44.178Z,84.89
2023-09-19T02:49:56.201Z,85.15
2023-09-19T02:50:10.350Z,85.35
2023-09-19T02:50:22.621Z,84.99
2023-09-19T02:50:35.058Z,85.04
2023-09-19T02:50:53.305Z,84.93
2023-09-19T02:51:06.030Z,84.80
2023-09-19T02:51:18.123Z,84.63
2023-09-19T02:51:30.220Z,84.13
2023-09-19T02:51:42.304Z,83.84
2023-09-19T02:51:54.360Z,83.95
2023-09-19T02:52:08.471Z,83.90
2023-09-19T02:52:20.539Z,84.14
2023-09-19T02:52:32.605Z,84.20
2023-09-19T02:52:45.950Z,83.95
2023-09-19T02:52:58.000Z,84.04
2023-09-19T02:53:13.738Z,83.95
2023-09-19T02:53:25.870Z,84.18
2023-09-19T02:53:38.142Z,84.33
2023-09-19T02:53:53.625Z,84.40
2023-09-19T02:54:05.862Z,84.21
2023-09-19T02:54:18.524Z,84.41
2023-09-19T02:54:30.697Z,84.41
2023-09-19T02:54:46.275Z,84.67
2023-09-19T02:54:58.293Z,84.87
2023-09-19T02:55:12.120Z,84.64
2023-09-19T02:55:24.269Z,84.68
2023-09-19T02:55:36.480Z,84.86
2023-09-19T02:55:49.197Z,84.96
2023-09-19T02:56:02.249Z,85.08
2023-09-19T02:56:14.631Z,85.09
2023-09-19T02:56:26.884Z,85.01
2023-09-19T02:56:38.956Z,84.84
2023-09-19T02:56:50.979Z,84.67
2023-09-19T02:57:04.631Z,84.78
2023-09-19T02:57:18.765Z,85.27
2023-09-19T02:57:32.202Z,85.16
2023-09-19T02:57:57.678Z,85.65
2023-09-19T02:58:11.998Z,85.61
2023-09-19T02:58:26.123Z,85.48
2023-09-19T02:58:38.895Z,85.46
2023-09-19T02:58:51.011Z,85.17
2023-09-19T02:59:03.673Z,85.00
2023-09-19T02:59:15.771Z,84.95
2023-09-19T02:59:29.461Z,84.91
2023-09-19T02:59:43.228Z,85.32
2023-09-19T02:59:55.861Z,85.39
2023-09-19T03:00:11.140Z,85.52
2023-09-19T03:00:23.867Z,85.99
2023-09-19T03:00:36.561Z,86.13
2023-09-19T03:00:48.834Z,86.19
2023-09-19T03:01:09.298Z,85.88
2023-09-19T03:01:21.754Z,85.55
2023-09-19T03:01:35.062Z,85.94
2023-09-19T03:01:49.335Z,85.90
2023-09-19T03:02:03.844Z,85.38
2023-09-19T03:02:16.969Z,85.51
2023-09-19T03:02:29.125Z,85.76
2023-09-19T03:02:42.481Z,86.13
2023-09-19T03:02:56.428Z,86.19
2023-09-19T03:03:09.529Z,86.12
2023-09-19T03:03:21.731Z,85.84
2023-09-19T03:03:34.599Z,85.62
2023-09-19T03:03:46.905Z,85.19
2023-09-19T03:03:59.530Z,85.20
2023-09-19T03:04:13.825Z,85.21
2023-09-19T03:04:28.497Z,85.35
2023-09-19T03:04:40.665Z,85.10
2023-09-19T03:04:52.787Z,85.01
2023-09-19T03:05:06.172Z,85.06
2023-09-19T03:05:18.981Z,85.04
2023-09-19T03:05:34.166Z,85.05
2023-09-19T03:05:48.113Z,85.27
2023-09-19T03:06:00.426Z,85.16
2023-09-19T03:06:13.958Z,85.33
2023-09-19T03:06:26.097Z,85.74
2023-09-19T03:06:39.797Z,85.76
2023-09-19T03:06:52.535Z,85.81
2023-09-19T03:07:05.367Z,85.47
2023-09-19T03:07:17.458Z,85.57
2023-09-19T03:07:29.629Z,85.58
2023-09-19T03:07:44.202Z,85.52
2023-09-19T03:07:56.615Z,85.50
2023-09-19T03:08:08.716Z,85.51
2023-09-19T03:08:20.832Z,85.36
2023-09-19T03:08:37.637Z,85.35
2023-09-19T03:08:52.561Z,85.41
2023-09-19T03:09:07.149Z,85.42
2023-09-19T03:09:20.399Z,85.35
2023-09-19T03:09:32.399Z,85.41
2023-09-19T03:09:44.394Z,85.79
2023-09-19T03:09:56.369Z,85.88
2023-09-19T03:10:08.948Z,86.02
2023-09-19T03:10:21.995Z,86.21
2023-09-19T03:10:34.156Z,86.19
2023-09-19T03:10:49.310Z,86.16
2023-09-19T03:11:02.002Z,86.03
2023-09-19T03:11:16.029Z,86.00
2023-09-19T03:11:28.226Z,86.00
2023-09-19T03:11:41.398Z,86.24
2023-09-19T03:11:53.477Z,86.19
2023-09-19T03:12:07.120Z,86.33
2023-09-19T03:12:19.226Z,86.57